createdAt,value
2024-05-09T00:01:14.106Z,77.88
2024-05-09T00:03:47.347Z,77.90
2024-05-09T00:06:18.332Z,77.46
2024-05-09T00:08:49.255Z,78.17
2024-05-09T00:11:23.609Z,77.77
2024-05-09T00:13:54.752Z,78.23
2024-05-09T00:16:25.807Z,77.66
2024-05-09T00:18:56.840Z,77.69
2024-05-09T00:21:27.810Z,77.49
2024-05-09T00:24:01.073Z,77.96
2024-05-09T00:26:32.097Z,77.75
2024-05-09T00:29:03.139Z,76.86
2024-05-09T00:31:36.459Z,77.46
2024-05-09T00:34:07.538Z,78.28
2024-05-09T00:36:38.497Z,77.75
2024-05-09T00:39:09.478Z,78.22
2024-05-09T00:41:40.490Z,78.48
2024-05-09T00:44:11.546Z,78.19
2024-05-09T00:46:42.788Z,78.05
2024-05-09T00:49:15.212Z,78.15
2024-05-09T00:51:46.190Z,78.52
2024-05-09T00:54:19.816Z,78.45
2024-05-09T00:56:52.450Z,78.38
2024-05-09T00:59:23.659Z,78.30
2024-05-09T01:01:54.778Z,78.09
2024-05-09T01:04:28.458Z,78.60
2024-05-09T01:06:59.458Z,78.57
2024-05-09T01:09:30.487Z,78.43
2024-05-09T01:12:03.657Z,77.90
2024-05-09T01:14:37.240Z,77.49
2024-05-09T01:17:08.830Z,77.67
2024-05-09T01:19:42.262Z,77.65
2024-05-09T01:22:16.259Z,78.30
2024-05-09T01:24:49.624Z,78.35
2024-05-09T01:27:20.805Z,77.69
2024-05-09T01:29:51.799Z,77.67
2024-05-09T01:32:22.975Z,78.28
2024-05-09T01:34:54.140Z,78.88
2024-05-09T01:37:27.569Z,78.57
2024-05-09T01:40:01.875Z,78.39
2024-05-09T01:42:37.910Z,77.68
2024-05-09T01:45:12.265Z,78.06
2024-05-09T01:47:48.704Z,77.57
2024-05-09T01:50:28.985Z,77.83
2024-05-09T01:53:10.264Z,78.34
2024-05-09T01:55:42.183Z,77.72
2024-05-09T01:58:13.156Z,77.89
2024-05-09T02:00:46.412Z,78.30
2024-05-09T02:03:20.051Z,78.30
2024-05-09T02:05:51.596Z,78.33
2024-05-09T02:08:25.916Z,78.52
2024-05-09T02:10:56.918Z,78.58
2024-05-09T02:13:27.974Z,78.74
2024-05-09T02:16:03.977Z,78.83
2024-05-09T02:18:35.071Z,78.54
2024-05-09T02:21:06.946Z,78.15
2024-05-09T02:23:37.995Z,78.07
2024-05-09T02:26:09.143Z,77.99
2024-05-09T02:28:44.309Z,77.59
2024-05-09T02:31:16.274Z,78.34
2024-05-09T02:33:47.705Z,78.17
2024-05-09T02:36:20.141Z,78.17
2024-05-09T02:38:53.477Z,77.70
2024-05-09T02:41:27.036Z,78.01
2024-05-09T02:44:00.123Z,78.44
2024-05-09T02:46:35.384Z,78.28
2024-05-09T02:49:06.490Z,78.37
2024-05-09T02:51:37.528Z,78.35
2024-05-09T02:54:12.608Z,78.42
2024-05-09T02:56:46.053Z,78.23
2024-05-09T02:59:17.010Z,78.44
2024-05-09T03:01:53.929Z,78.32
2024-05-09T03:04:25.195Z,78.18
2024-05-09T03:06:58.417Z,78.17
2024-05-09T03:09:29.371Z,77.97
2024-05-09T03:12:00.413Z,77.96
2024-05-09T03:14:34.415Z,77.86
2024-05-09T03:17:08.233Z,78.09
2024-05-09T03:19:39.285Z,77.82
2024-05-09T03:22:12.422Z,77.95
2024-05-09T03:24:46.534Z,78.17
2024-05-09T03:27:19.978Z,77.83
2024-05-09T03:29:53.990Z,77.77
2024-05-09T03:32:25.025Z,78.07
2024-05-09T03:34:58.368Z,78.11
2024-05-09T03:37:29.330Z,78.20
2024-05-09T03:40:02.957Z,78.32
2024-05-09T03:42:33.996Z,78.19
2024-05-09T03:45:08.361Z,78.05
2024-05-09T03:47:39.488Z,77.77
2024-05-09T03:50:21.966Z,77.79
2024-05-09T03:52:56.908Z,78.21
2024-05-09T03:55:30.905Z,78.10
2024-05-09T03:58:01.901Z,77.99
2024-05-09T04:00:38.898Z,77.91
2024-05-09T04:03:13.854Z,78.56
2024-05-09T04:05:48.062Z,78.31
2024-05-09T04:08:22.010Z,78.36
2024-05-09T04:10:55.654Z,77.99
2024-05-09T04:13:28.944Z,78.10
2024-05-09T04:16:02.418Z,78.33
2024-05-09T04:18:33.421Z,78.37
2024-05-09T04:21:10.443Z,78.58
2024-05-09T04:23:44.301Z,78.74
2024-05-09T04:26:17.394Z,78.77
2024-05-09T04:28:50.788Z,78.77
2024-05-09T04:31:21.849Z,78.70
2024-05-09T04:33:55.526Z,78.82
2024-05-09T04:36:28.673Z,78.98
2024-05-09T04:39:02.656Z,79.10
2024-05-09T04:41:36.324Z,78.98
2024-05-09T04:44:07.288Z,78.83
2024-05-09T04:46:39.768Z,78.45
2024-05-09T04:49:10.744Z,78.90
2024-05-09T04:51:41.845Z,79.03
2024-05-09T04:54:26.118Z,78.82
2024-05-09T04:57:07.058Z,78.96
2024-05-09T04:59:38.084Z,78.93
2024-05-09T05:02:11.377Z,78.50
2024-05-09T05:04:42.573Z,78.36
2024-05-09T05:07:14.788Z,78.51
2024-05-09T05:09:46.766Z,78.75
2024-05-09T05:12:36.706Z,78.33
2024-05-09T05:15:07.883Z,78.52
2024-05-09T05:17:41.782Z,78.24
2024-05-09T05:20:24.347Z,78.62
2024-05-09T05:23:02.017Z,78.54
2024-05-09T05:25:33.104Z,79.03
2024-05-09T05:28:06.237Z,79.12
2024-05-09T05:30:40.467Z,79.71
2024-05-09T05:33:20.279Z,79.61
2024-05-09T05:35:51.524Z,78.94
2024-05-09T05:38:26.076Z,80.02
2024-05-09T05:41:00.995Z,79.89
2024-05-09T05:43:32.081Z,80.41
2024-05-09T05:46:06.041Z,80.55
2024-05-09T05:48:39.548Z,80.15
2024-05-09T05:51:10.749Z,79.89
2024-05-09T05:53:44.714Z,79.53
2024-05-09T05:56:15.805Z,78.74
2024-05-09T05:58:52.264Z,79.27
2024-05-09T06:01:23.273Z,79.15
2024-05-09T06:03:56.703Z,78.90
2024-05-09T06:06:27.891Z,78.04
2024-05-09T06:09:01.705Z,78.37
2024-05-09T06:11:35.186Z,78.61
2024-05-09T06:14:06.258Z,77.91
2024-05-09T06:16:39.955Z,77.23
2024-05-09T06:19:14.133Z,76.68
2024-05-09T06:21:45.274Z,76.89
2024-05-09T06:24:26.871Z,76.66
2024-05-09T06:27:01.222Z,76.80
2024-05-09T06:29:35.845Z,76.27
2024-05-09T06:32:09.328Z,75.69
2024-05-09T06:34:46.497Z,75.09
2024-05-09T06:37:20.546Z,74.74
2024-05-09T06:39:51.545Z,73.86
2024-05-09T06:42:22.595Z,73.90
2024-05-09T06:45:15.955Z,72.86
2024-05-09T06:47:49.918Z,72.61
2024-05-09T06:50:24.575Z,72.25
2024-05-09T06:53:03.739Z,72.00
2024-05-09T06:55:36.267Z,72.06
2024-05-09T06:58:11.191Z,72.20
2024-05-09T07:00:46.763Z,71.16
2024-05-09T07:03:19.191Z,71.46
2024-05-09T07:05:55.103Z,72.29
2024-05-09T07:08:31.078Z,71.91
2024-05-09T07:11:04.609Z,71.57
2024-05-09T07:13:38.416Z,70.48
2024-05-09T07:16:09.457Z,70.78
2024-05-09T07:18:40.930Z,68.48
2024-05-09T07:21:12.109Z,67.95
2024-05-09T07:23:45.393Z,67.92
2024-05-09T07:26:18.310Z,67.95
2024-05-09T07:28:49.368Z,68.09
2024-05-09T07:31:20.399Z,67.66
2024-05-09T07:33:51.520Z,67.72
2024-05-09T07:36:23.493Z,67.67
2024-05-09T07:38:54.412Z,67.07
2024-05-09T07:41:25.397Z,66.48
2024-05-09T07:43:56.472Z,65.58
2024-05-09T07:47:36.496Z,65.71
2024-05-09T07:51:31.617Z,65.24
2024-05-09T07:53:29.337Z,64.85
2024-05-09T07:55:04.800Z,64.18
2024-05-09T07:57:35.966Z,63.17
2024-05-09T08:00:08.327Z,63.22
2024-05-09T08:02:42.559Z,61.60
2024-05-09T08:05:13.667Z,60.07
2024-05-09T08:07:46.954Z,58.80
2024-05-09T08:10:22.178Z,58.83
2024-05-09T08:12:58.027Z,58.86
2024-05-09T08:15:29.795Z,58.97
2024-05-09T08:18:00.940Z,58.29
2024-05-09T08:20:35.216Z,57.91
2024-05-09T08:23:06.650Z,57.45
2024-05-09T08:25:39.785Z,57.37
2024-05-09T08:28:10.806Z,57.73
2024-05-09T08:30:41.947Z,57.31
2024-05-09T08:33:12.977Z,56.76
2024-05-09T08:35:44.035Z,55.34
2024-05-09T08:38:15.137Z,55.13
2024-05-09T08:40:49.747Z,54.01
2024-05-09T08:43:21.927Z,54.34
2024-05-09T08:45:53.015Z,53.82
2024-05-09T08:48:25.358Z,52.13
2024-05-09T08:50:59.287Z,52.75
2024-05-09T08:53:30.410Z,52.73
2024-05-09T08:56:03.773Z,51.36
2024-05-09T08:58:34.977Z,52.43
2024-05-09T09:01:09.380Z,51.71
2024-05-09T09:03:40.658Z,52.02
2024-05-09T09:06:15.120Z,50.18
2024-05-09T09:08:46.698Z,50.86
2024-05-09T09:11:17.682Z,50.74
2024-05-09T09:13:48.622Z,49.48
2024-05-09T09:16:19.786Z,50.65
2024-05-09T09:18:51.182Z,48.63
2024-05-09T09:21:22.208Z,47.96
2024-05-09T09:23:53.116Z,46.99
2024-05-09T09:26:24.752Z,47.07
2024-05-09T09:28:55.773Z,46.19
2024-05-09T09:31:26.756Z,45.86
2024-05-09T09:34:00.156Z,45.81
2024-05-09T09:36:33.008Z,45.20
2024-05-09T09:39:04.984Z,45.05
2024-05-09T09:41:39.234Z,43.58
2024-05-09T09:44:11.389Z,43.09
2024-05-09T09:46:43.001Z,44.20
2024-05-09T09:49:15.398Z,43.35
2024-05-09T09:51:48.220Z,45.04
2024-05-09T09:54:20.474Z,44.89
2024-05-09T09:56:53.562Z,45.31
2024-05-09T09:59:24.877Z,44.59
2024-05-09T10:01:56.042Z,44.83
2024-05-09T10:04:27.468Z,44.88
2024-05-09T10:07:05.344Z,44.86
2024-05-09T10:09:37.096Z,44.44
2024-05-09T10:12:18.125Z,45.27
2024-05-09T10:14:52.822Z,44.33
2024-05-09T10:17:23.862Z,43.78
2024-05-09T10:20:14.400Z,43.04
2024-05-09T10:22:52.098Z,42.13
2024-05-09T10:25:23.742Z,41.36
2024-05-09T10:27:57.678Z,41.44
2024-05-09T10:30:34.258Z,41.30
2024-05-09T10:33:12.196Z,41.56
2024-05-09T10:35:53.492Z,41.26
2024-05-09T10:38:24.599Z,42.47
2024-05-09T10:40:59.201Z,41.55
2024-05-09T10:43:30.497Z,41.11
2024-05-09T10:46:01.563Z,40.79
2024-05-09T10:48:33.010Z,40.08
2024-05-09T10:51:04.254Z,39.27
2024-05-09T10:53:42.764Z,39.65
2024-05-09T10:56:15.892Z,40.75
2024-05-09T10:58:48.118Z,41.34
2024-05-09T11:01:19.152Z,41.13
2024-05-09T11:03:51.096Z,39.40
2024-05-09T11:06:22.312Z,38.93
2024-05-09T11:08:53.940Z,38.82
2024-05-09T11:11:25.140Z,38.77
2024-05-09T11:13:56.089Z,37.70
2024-05-09T11:16:27.083Z,38.00
2024-05-09T11:18:59.529Z,37.01
2024-05-09T11:21:30.851Z,36.74
2024-05-09T11:24:01.789Z,35.88
2024-05-09T11:26:34.073Z,36.24
2024-05-09T11:29:04.979Z,36.81
2024-05-09T11:31:37.216Z,36.58
2024-05-09T11:34:08.260Z,37.08
2024-05-09T11:36:39.294Z,37.07
2024-05-09T11:39:10.562Z,37.64
2024-05-09T11:41:41.550Z,37.78
2024-05-09T11:44:13.144Z,38.18
2024-05-09T11:46:45.063Z,38.65
2024-05-09T11:49:16.103Z,38.74
2024-05-09T11:51:47.110Z,39.23
2024-05-09T11:54:18.379Z,39.54
2024-05-09T11:56:51.483Z,39.76
2024-05-09T11:59:22.423Z,39.92
2024-05-09T12:01:53.537Z,40.52
2024-05-09T12:04:25.701Z,39.33
2024-05-09T12:06:56.833Z,38.62
2024-05-09T12:09:27.850Z,38.75
2024-05-09T12:11:58.789Z,38.55
2024-05-09T12:14:29.790Z,39.16
2024-05-09T12:17:01.207Z,38.38
2024-05-09T12:19:32.371Z,38.38
2024-05-09T12:22:05.144Z,38.67
2024-05-09T12:24:36.195Z,38.40
2024-05-09T12:27:07.274Z,39.32
2024-05-09T12:29:38.967Z,38.73
2024-05-09T12:32:10.116Z,38.52
2024-05-09T12:34:41.139Z,38.60
2024-05-09T12:37:12.358Z,38.96
2024-05-09T12:39:43.366Z,39.14
2024-05-09T12:42:26.309Z,39.36
2024-05-09T12:44:59.014Z,39.49
2024-05-09T12:47:30.090Z,39.80
2024-05-09T12:50:01.269Z,38.37
2024-05-09T12:52:32.255Z,38.93
2024-05-09T12:55:03.233Z,38.80
2024-05-09T12:57:34.436Z,38.36
2024-05-09T13:00:05.863Z,37.96
2024-05-09T13:02:38.490Z,37.97
2024-05-09T13:05:10.435Z,37.93
2024-05-09T13:07:42.268Z,38.87
2024-05-09T13:10:19.753Z,38.15
2024-05-09T13:12:54.158Z,38.01
2024-05-09T13:15:25.128Z,38.18
2024-05-09T13:17:58.283Z,38.37
2024-05-09T13:20:34.088Z,37.94
2024-05-09T13:23:08.477Z,37.90
2024-05-09T13:25:39.955Z,37.93
2024-05-09T13:28:11.079Z,37.65
2024-05-09T13:30:42.588Z,37.48
2024-05-09T13:33:14.464Z,38.05
2024-05-09T13:35:49.637Z,38.37
2024-05-09T13:38:22.539Z,38.49
2024-05-09T13:40:53.599Z,39.18
2024-05-09T13:43:25.437Z,39.61
2024-05-09T13:45:57.949Z,40.34
2024-05-09T13:48:29.212Z,39.90
2024-05-09T13:51:00.337Z,39.97
2024-05-09T13:53:31.295Z,40.65
2024-05-09T13:56:02.300Z,41.30
2024-05-09T13:58:33.276Z,41.94
2024-05-09T14:01:04.406Z,42.20
2024-05-09T14:03:35.592Z,42.60
2024-05-09T14:06:09.446Z,42.49
2024-05-09T14:08:42.190Z,42.27
2024-05-09T14:11:13.184Z,42.42
2024-05-09T14:13:44.232Z,42.19
2024-05-09T14:16:15.691Z,42.21
2024-05-09T14:18:46.672Z,42.56
2024-05-09T14:21:17.665Z,42.60
2024-05-09T14:23:48.629Z,42.41
2024-05-09T14:26:19.895Z,42.27
2024-05-09T14:28:50.917Z,41.97
2024-05-09T14:31:22.961Z,41.38
2024-05-09T14:33:54.123Z,41.51
2024-05-09T14:36:25.234Z,41.59
2024-05-09T14:38:56.239Z,41.77
2024-05-09T14:41:27.157Z,42.00
2024-05-09T14:43:58.137Z,41.47
2024-05-09T14:46:29.313Z,41.44
2024-05-09T14:49:00.548Z,41.20
2024-05-09T14:51:31.613Z,40.30
2024-05-09T14:54:02.531Z,39.18
2024-05-09T14:56:33.710Z,37.20
2024-05-09T14:59:04.638Z,32.72
2024-05-09T15:01:35.636Z,31.49
2024-05-09T15:04:06.803Z,30.54
2024-05-09T15:06:40.974Z,30.43
2024-05-09T15:09:11.918Z,30.65
2024-05-09T15:11:43.908Z,30.89
2024-05-09T15:14:15.813Z,30.95
2024-05-09T15:16:48.512Z,31.46
2024-05-09T15:19:19.759Z,30.37
2024-05-09T15:21:50.849Z,31.03
2024-05-09T15:24:21.837Z,31.39
2024-05-09T15:26:52.769Z,31.61
2024-05-09T15:29:23.751Z,31.46
2024-05-09T15:31:54.684Z,28.42
2024-05-09T15:34:25.686Z,26.90
2024-05-09T15:36:56.764Z,26.34
2024-05-09T15:39:30.236Z,26.64
2024-05-09T15:42:01.287Z,26.80
2024-05-09T15:44:32.314Z,25.79
2024-05-09T15:47:03.234Z,25.41
2024-05-09T15:49:34.506Z,25.17
2024-05-09T15:52:05.597Z,23.51
2024-05-09T15:54:36.737Z,24.36
2024-05-09T15:57:08.409Z,24.37
2024-05-09T15:59:39.868Z,25.75
2024-05-09T16:02:11.551Z,26.45
2024-05-09T16:04:43.002Z,29.80
2024-05-09T16:07:14.270Z,31.96
2024-05-09T16:09:45.419Z,31.58
2024-05-09T16:12:16.362Z,32.33
2024-05-09T16:14:47.421Z,33.91
2024-05-09T16:17:18.708Z,34.12
2024-05-09T16:19:50.056Z,34.48
2024-05-09T16:22:21.075Z,34.57
2024-05-09T16:24:52.223Z,32.11
2024-05-09T16:27:23.176Z,29.00
2024-05-09T16:29:58.000Z,27.64
2024-05-09T16:32:28.972Z,27.99
2024-05-09T16:35:00.096Z,28.52
2024-05-09T16:37:31.125Z,28.32
2024-05-09T16:40:02.128Z,27.97
2024-05-09T16:42:33.376Z,27.86
2024-05-09T16:45:04.505Z,27.65
2024-05-09T16:47:35.774Z,27.03
2024-05-09T16:50:08.573Z,27.21
2024-05-09T16:52:39.726Z,26.55
2024-05-09T16:55:10.854Z,26.52
2024-05-09T16:57:42.324Z,28.44
2024-05-09T17:00:21.928Z,30.87
2024-05-09T17:03:01.138Z,32.00
2024-05-09T17:05:32.333Z,32.81
2024-05-09T17:08:03.442Z,32.90
2024-05-09T17:10:35.944Z,30.82
2024-05-09T17:13:08.288Z,30.06
2024-05-09T17:15:39.524Z,29.14
2024-05-09T17:18:11.096Z,29.16
2024-05-09T17:20:42.098Z,28.93
2024-05-09T17:23:14.087Z,28.99
2024-05-09T17:25:45.632Z,28.88
2024-05-09T17:28:16.808Z,28.60
2024-05-09T17:30:48.509Z,28.89
2024-05-09T17:33:19.712Z,28.70
2024-05-09T17:35:51.790Z,29.12
2024-05-09T17:38:23.678Z,29.65
2024-05-09T17:40:54.886Z,30.55
2024-05-09T17:43:26.027Z,32.32
2024-05-09T17:45:57.024Z,35.80
2024-05-09T17:48:28.197Z,38.92
2024-05-09T17:50:59.560Z,41.33
2024-05-09T17:53:30.469Z,42.67
2024-05-09T17:56:02.209Z,44.10
2024-05-09T17:58:33.223Z,44.74
2024-05-09T18:01:04.417Z,45.64
2024-05-09T18:03:35.621Z,46.59
2024-05-09T18:06:06.848Z,47.42
2024-05-09T18:08:37.889Z,48.31
2024-05-09T18:11:09.442Z,48.99
2024-05-09T18:13:40.421Z,49.28
2024-05-09T18:16:11.455Z,50.08
2024-05-09T18:18:42.819Z,50.71
2024-05-09T18:21:13.948Z,50.81
2024-05-09T18:23:44.907Z,51.44
2024-05-09T18:26:15.946Z,51.63
2024-05-09T18:28:47.306Z,52.05
2024-05-09T18:31:18.333Z,52.41
2024-05-09T18:33:49.456Z,52.41
2024-05-09T18:36:20.666Z,52.92
2024-05-09T18:38:51.643Z,53.05
2024-05-09T18:41:22.593Z,53.32
2024-05-09T18:43:56.040Z,53.35
2024-05-09T18:46:27.545Z,53.38
2024-05-09T18:48:58.615Z,53.49
2024-05-09T18:51:29.647Z,53.82
2024-05-09T18:54:00.582Z,54.04
2024-05-09T18:56:31.570Z,54.13
2024-05-09T18:59:02.480Z,54.14
2024-05-09T19:01:33.752Z,54.59
2024-05-09T19:04:05.072Z,54.65
2024-05-09T19:06:37.637Z,54.93
2024-05-09T19:09:08.598Z,55.03
2024-05-09T19:11:40.087Z,55.03
2024-05-09T19:14:11.358Z,55.03
2024-05-09T19:16:42.381Z,55.28
2024-05-09T19:19:14.946Z,55.44
2024-05-09T19:21:46.128Z,56.15
2024-05-09T19:24:17.222Z,56.79
2024-05-09T19:26:49.027Z,57.64
2024-05-09T19:29:19.970Z,57.75
2024-05-09T19:31:50.964Z,57.31
2024-05-09T19:34:24.407Z,58.50
2024-05-09T19:36:55.650Z,59.35
2024-05-09T19:39:26.681Z,59.93
2024-05-09T19:41:57.630Z,59.99
2024-05-09T19:44:28.562Z,59.35
2024-05-09T19:46:59.564Z,59.85
2024-05-09T19:49:31.953Z,60.92
2024-05-09T19:52:03.005Z,61.28
2024-05-09T19:54:34.052Z,61.91
2024-05-09T19:57:05.138Z,62.43
2024-05-09T19:59:36.065Z,62.64
2024-05-09T20:02:07.241Z,63.37
2024-05-09T20:04:45.587Z,63.10
2024-05-09T20:07:16.825Z,63.18
2024-05-09T20:09:47.956Z,63.86
2024-05-09T20:12:18.920Z,63.53
2024-05-09T20:14:49.914Z,63.75
2024-05-09T20:17:20.828Z,64.59
2024-05-09T20:19:51.812Z,64.94
2024-05-09T20:22:22.884Z,65.16
2024-05-09T20:24:53.894Z,65.30
2024-05-09T20:27:24.981Z,65.66
2024-05-09T20:29:55.965Z,65.56
2024-05-09T20:32:27.000Z,66.03
2024-05-09T20:34:59.045Z,66.13
2024-05-09T20:37:30.031Z,66.19
2024-05-09T20:40:01.066Z,66.67
2024-05-09T20:42:32.017Z,67.12
2024-05-09T20:45:03.408Z,67.13
2024-05-09T20:47:34.445Z,66.55
2024-05-09T20:50:11.354Z,67.05
2024-05-09T20:52:47.304Z,67.73
2024-05-09T20:55:18.338Z,67.80
2024-05-09T20:57:49.370Z,67.83
2024-05-09T21:00:26.167Z,68.32
2024-05-09T21:03:05.720Z,68.28
2024-05-09T21:05:39.184Z,69.30
2024-05-09T21:08:10.655Z,69.31
2024-05-09T21:10:41.872Z,69.62
2024-05-09T21:13:13.492Z,69.21
2024-05-09T21:15:44.710Z,69.40
2024-05-09T21:18:15.759Z,70.06
2024-05-09T21:20:46.724Z,69.73
2024-05-09T21:23:17.679Z,70.46
2024-05-09T21:25:48.768Z,70.86
2024-05-09T21:28:19.848Z,71.24
2024-05-09T21:30:50.954Z,71.45
2024-05-09T21:33:22.180Z,71.48
2024-05-09T21:35:53.388Z,71.37
2024-05-09T21:38:24.337Z,71.33
2024-05-09T21:40:58.095Z,71.45
2024-05-09T21:43:31.443Z,71.52
2024-05-09T21:46:02.706Z,71.52
2024-05-09T21:48:34.092Z,71.37
2024-05-09T21:51:05.916Z,71.54
2024-05-09T21:53:37.892Z,71.39
2024-05-09T21:56:10.566Z,71.65
2024-05-09T21:58:41.532Z,71.79
2024-05-09T22:01:12.601Z,71.61
2024-05-09T22:03:43.701Z,71.45
2024-05-09T22:06:14.699Z,71.47
2024-05-09T22:08:45.634Z,71.57
2024-05-09T22:11:16.580Z,71.68
2024-05-09T22:13:49.832Z,71.86
2024-05-09T22:16:20.855Z,71.78
2024-05-09T22:18:51.915Z,71.83
2024-05-09T22:21:22.938Z,71.98
2024-05-09T22:23:54.480Z,72.25
2024-05-09T22:26:25.483Z,72.30
2024-05-09T22:28:56.458Z,71.92
2024-05-09T22:31:27.583Z,72.23
2024-05-09T22:33:58.852Z,72.18
2024-05-09T22:36:30.129Z,72.35
2024-05-09T22:39:01.084Z,72.29
2024-05-09T22:41:32.006Z,72.36
2024-05-09T22:44:02.933Z,72.60
2024-05-09T22:46:34.058Z,72.47
2024-05-09T22:49:05.428Z,71.97
2024-05-09T22:51:36.466Z,72.77
2024-05-09T22:54:07.743Z,73.10
2024-05-09T22:56:39.831Z,72.74
2024-05-09T22:59:10.884Z,73.01
2024-05-09T23:01:41.936Z,73.19
2024-05-09T23:04:13.004Z,73.59
2024-05-09T23:06:44.246Z,73.47
2024-05-09T23:09:15.268Z,73.29
2024-05-09T23:11:48.674Z,73.41
2024-05-09T23:14:19.646Z,72.74
2024-05-09T23:16:50.631Z,73.68
2024-05-09T23:19:21.694Z,73.28
2024-05-09T23:21:52.663Z,72.83
2024-05-09T23:24:23.623Z,73.32
2024-05-09T23:26:54.602Z,72.87
2024-05-09T23:29:25.588Z,72.69
2024-05-09T23:31:56.523Z,72.47
2024-05-09T23:34:27.756Z,73.26
2024-05-09T23:36:58.869Z,73.26
2024-05-09T23:39:29.842Z,73.47
2024-05-09T23:42:00.766Z,73.52
2024-05-09T23:44:31.720Z,73.94
2024-05-09T23:47:02.670Z,74.00
2024-05-09T23:49:33.796Z,74.00
2024-05-09T23:52:04.876Z,73.98
2024-05-09T23:54:35.932Z,74.22
2024-05-09T23:57:06.980Z,73.96
2024-05-09T23:59:37.973Z,74.03
